createdAt,value
2023-03-06T00:01:20.603Z,73.45
2023-03-06T00:03:52.285Z,72.94
2023-03-06T00:06:24.988Z,72.94
2023-03-06T00:08:56.616Z,73.00
2023-03-06T00:11:28.398Z,73.10
2023-03-06T00:14:00.001Z,73.01
2023-03-06T00:16:31.726Z,72.67
2023-03-06T00:19:03.240Z,73.28
2023-03-06T00:21:34.859Z,72.96
2023-03-06T00:24:06.550Z,72.71
2023-03-06T00:26:38.154Z,72.78
2023-03-06T00:29:10.387Z,72.32
2023-03-06T00:31:45.055Z,72.59
2023-03-06T00:34:15.157Z,72.53
2023-03-06T00:36:47.537Z,73.01
2023-03-06T00:39:19.033Z,73.28
2023-03-06T00:41:50.489Z,73.36
2023-03-06T00:44:21.964Z,73.13
2023-03-06T00:46:54.571Z,73.18
2023-03-06T00:49:26.992Z,73.43
2023-03-06T00:51:59.075Z,73.55
2023-03-06T00:54:30.730Z,72.81
2023-03-06T00:57:02.198Z,73.14
2023-03-06T00:59:34.345Z,72.75
2023-03-06T01:02:06.879Z,73.20
2023-03-06T01:04:39.001Z,72.86
2023-03-06T01:07:10.814Z,73.24
2023-03-06T01:09:43.227Z,73.37
2023-03-06T01:12:15.024Z,73.32
2023-03-06T01:14:46.973Z,73.48
2023-03-06T01:17:18.763Z,73.64
2023-03-06T01:19:50.404Z,73.55
2023-03-06T01:22:22.638Z,73.06
2023-03-06T01:24:54.803Z,72.99
2023-03-06T01:27:29.097Z,72.28
2023-03-06T01:30:00.766Z,72.66
2023-03-06T01:32:33.396Z,72.79
2023-03-06T01:35:05.877Z,72.19
2023-03-06T01:37:38.631Z,72.87
2023-03-06T01:40:14.077Z,73.13
2023-03-06T01:42:46.929Z,72.94
2023-03-06T01:45:53.210Z,72.78
2023-03-06T01:48:26.285Z,72.00
2023-03-06T01:50:57.969Z,72.83
2023-03-06T01:53:30.236Z,73.11
2023-03-06T01:56:03.679Z,73.15
2023-03-06T01:58:35.949Z,73.16
2023-03-06T02:01:08.920Z,73.69
2023-03-06T02:03:42.897Z,72.79
2023-03-06T02:06:20.060Z,72.81
2023-03-06T02:08:53.875Z,72.40
2023-03-06T02:11:26.990Z,72.79
2023-03-06T02:13:58.819Z,72.66
2023-03-06T02:16:33.416Z,72.45
2023-03-06T02:19:06.824Z,72.57
2023-03-06T02:21:39.816Z,72.56
2023-03-06T02:24:29.793Z,73.36
2023-03-06T02:27:04.808Z,73.18
2023-03-06T02:29:37.051Z,73.08
2023-03-06T02:32:09.965Z,72.91
2023-03-06T02:34:57.018Z,73.12
2023-03-06T02:37:30.870Z,72.55
2023-03-06T02:40:09.754Z,72.70
2023-03-06T02:42:46.997Z,72.31
2023-03-06T02:45:23.645Z,72.90
2023-03-06T02:47:55.193Z,72.32
2023-03-06T02:50:27.054Z,71.84
2023-03-06T02:52:58.616Z,72.58
2023-03-06T02:55:30.905Z,72.66
2023-03-06T02:58:03.015Z,72.75
2023-03-06T03:00:36.394Z,72.90
2023-03-06T03:03:09.393Z,72.99
2023-03-06T03:05:40.965Z,72.73
2023-03-06T03:08:12.909Z,72.96
2023-03-06T03:10:44.941Z,72.66
2023-03-06T03:13:16.553Z,72.89
2023-03-06T03:15:48.194Z,72.52
2023-03-06T03:18:19.764Z,72.36
2023-03-06T03:20:51.877Z,72.36
2023-03-06T03:23:23.450Z,72.56
2023-03-06T03:25:55.210Z,72.22
2023-03-06T03:28:27.204Z,72.18
2023-03-06T03:31:03.710Z,72.31
2023-03-06T03:33:36.077Z,72.50
2023-03-06T03:36:09.431Z,72.19
2023-03-06T03:38:41.307Z,72.12
2023-03-06T03:41:13.267Z,72.23
2023-03-06T03:43:45.803Z,72.13
2023-03-06T03:46:17.470Z,72.06
2023-03-06T03:48:49.604Z,72.41
2023-03-06T03:51:22.347Z,72.63
2023-03-06T03:53:53.970Z,72.59
2023-03-06T03:56:25.677Z,72.03
2023-03-06T03:58:58.249Z,71.90
2023-03-06T04:01:30.529Z,72.22
2023-03-06T04:04:02.143Z,72.51
2023-03-06T04:06:34.138Z,72.83
2023-03-06T04:09:06.166Z,72.89
2023-03-06T04:11:38.674Z,72.18
2023-03-06T04:14:10.651Z,72.25
2023-03-06T04:16:42.309Z,72.70
2023-03-06T04:19:13.953Z,72.24
2023-03-06T04:21:45.961Z,72.38
2023-03-06T04:24:18.400Z,72.68
2023-03-06T04:26:49.984Z,72.55
2023-03-06T04:29:22.903Z,72.37
2023-03-06T04:33:13.129Z,72.86
2023-03-06T04:39:39.774Z,71.53
2023-03-06T04:42:11.901Z,71.36
2023-03-06T04:44:43.978Z,71.81
2023-03-06T04:47:18.137Z,71.97
2023-03-06T04:49:50.536Z,72.08
2023-03-06T04:52:22.318Z,72.01
2023-03-06T04:54:53.900Z,71.89
2023-03-06T04:57:25.917Z,72.18
2023-03-06T04:59:57.472Z,71.98
2023-03-06T05:02:29.650Z,72.85
2023-03-06T05:05:02.935Z,72.82
2023-03-06T05:07:35.145Z,72.65
2023-03-06T05:10:08.066Z,73.03
2023-03-06T05:12:41.358Z,72.79
2023-03-06T05:15:15.846Z,72.93
2023-03-06T05:17:48.162Z,73.15
2023-03-06T05:20:20.254Z,72.73
2023-03-06T05:22:51.816Z,73.00
2023-03-06T05:25:24.043Z,73.25
2023-03-06T05:27:55.691Z,73.07
2023-03-06T05:30:27.919Z,73.42
2023-03-06T05:32:59.583Z,73.17
2023-03-06T05:35:32.023Z,73.12
2023-03-06T05:38:04.268Z,73.11
2023-03-06T05:40:35.863Z,72.51
2023-03-06T05:43:09.039Z,72.58
2023-03-06T05:45:41.532Z,72.99
2023-03-06T05:48:15.114Z,72.97
2023-03-06T05:50:47.110Z,73.54
2023-03-06T05:53:19.196Z,74.02
2023-03-06T05:55:59.593Z,75.30
2023-03-06T05:58:33.212Z,76.01
2023-03-06T06:01:12.968Z,75.64
2023-03-06T06:03:44.925Z,74.31
2023-03-06T06:06:18.272Z,73.22
2023-03-06T06:08:50.508Z,73.02
2023-03-06T06:11:22.486Z,72.89
2023-03-06T06:13:54.091Z,72.91
2023-03-06T06:16:25.705Z,72.62
2023-03-06T06:18:58.785Z,72.76
2023-03-06T06:21:30.533Z,72.38
2023-03-06T06:24:02.591Z,72.21
2023-03-06T06:26:34.442Z,72.34
2023-03-06T06:29:07.309Z,72.55
2023-03-06T06:31:39.076Z,72.45
2023-03-06T06:34:12.284Z,72.51
2023-03-06T06:36:46.235Z,72.25
2023-03-06T06:39:20.306Z,72.97
2023-03-06T06:42:09.994Z,72.78
2023-03-06T06:44:45.344Z,73.15
2023-03-06T06:47:22.861Z,73.02
2023-03-06T06:49:57.515Z,73.39
2023-03-06T06:52:29.003Z,73.98
2023-03-06T06:55:00.710Z,73.52
2023-03-06T06:57:32.554Z,73.67
2023-03-06T07:00:05.438Z,73.23
2023-03-06T07:02:38.709Z,73.59
2023-03-06T07:05:13.159Z,73.64
2023-03-06T07:07:45.253Z,73.82
2023-03-06T07:10:20.734Z,73.88
2023-03-06T07:12:52.670Z,73.55
2023-03-06T07:15:27.219Z,73.08
2023-03-06T07:17:58.769Z,73.14
2023-03-06T07:20:32.228Z,73.17
2023-03-06T07:23:05.257Z,73.36
2023-03-06T07:25:38.655Z,73.51
2023-03-06T07:28:10.725Z,73.66
2023-03-06T07:30:43.819Z,73.80
2023-03-06T07:33:16.385Z,74.40
2023-03-06T07:35:47.925Z,74.79
2023-03-06T07:38:20.993Z,75.12
2023-03-06T07:40:56.795Z,75.02
2023-03-06T07:43:28.925Z,74.83
2023-03-06T07:46:01.777Z,74.17
2023-03-06T07:48:34.359Z,73.97
2023-03-06T07:51:09.029Z,73.51
2023-03-06T07:53:40.817Z,73.50
2023-03-06T07:56:14.098Z,73.61
2023-03-06T07:58:47.290Z,73.43
2023-03-06T08:01:21.306Z,73.77
2023-03-06T08:03:53.306Z,73.15
2023-03-06T08:06:26.827Z,72.63
2023-03-06T08:08:59.269Z,73.47
2023-03-06T08:11:33.552Z,73.71
2023-03-06T08:14:05.417Z,73.21
2023-03-06T08:16:38.651Z,73.30
2023-03-06T08:19:10.935Z,73.62
2023-03-06T08:21:44.117Z,73.46
2023-03-06T08:24:17.049Z,73.48
2023-03-06T08:26:49.305Z,73.51
2023-03-06T08:29:21.660Z,73.76
2023-03-06T08:31:53.343Z,73.38
2023-03-06T08:34:27.202Z,73.31
2023-03-06T08:36:59.649Z,73.67
2023-03-06T08:39:31.166Z,73.36
2023-03-06T08:42:02.942Z,73.63
2023-03-06T08:44:35.037Z,73.70
2023-03-06T08:47:07.610Z,73.69
2023-03-06T08:49:41.043Z,73.38
2023-03-06T08:52:13.122Z,73.58
2023-03-06T08:54:44.995Z,73.62
2023-03-06T08:57:18.225Z,72.94
2023-03-06T08:59:50.202Z,72.69
2023-03-06T09:02:21.736Z,73.09
2023-03-06T09:04:54.255Z,73.28
2023-03-06T09:07:26.642Z,73.02
2023-03-06T09:10:00.544Z,72.99
2023-03-06T09:12:40.354Z,73.21
2023-03-06T09:15:19.409Z,73.25
2023-03-06T09:17:51.819Z,73.17
2023-03-06T09:20:24.541Z,73.32
2023-03-06T09:22:56.684Z,73.11
2023-03-06T09:25:28.565Z,73.23
2023-03-06T09:28:10.995Z,73.44
2023-03-06T09:30:44.709Z,73.58
2023-03-06T09:33:16.844Z,73.85
2023-03-06T09:35:53.742Z,73.55
2023-03-06T09:38:27.762Z,73.46
2023-03-06T09:43:42.250Z,73.66
2023-03-06T09:46:25.021Z,73.86
2023-03-06T09:49:13.806Z,74.16
2023-03-06T09:51:58.730Z,74.01
2023-03-06T09:54:38.823Z,73.38
2023-03-06T09:57:20.420Z,73.79
2023-03-06T09:59:56.475Z,73.59
2023-03-06T10:02:36.968Z,73.69
2023-03-06T10:05:14.897Z,73.60
2023-03-06T10:07:52.724Z,74.28
2023-03-06T10:10:28.078Z,74.20
2023-03-06T10:13:13.831Z,74.03
2023-03-06T10:15:48.824Z,74.00
2023-03-06T10:18:20.611Z,74.55
2023-03-06T10:21:13.442Z,74.40
2023-03-06T10:23:59.996Z,74.22
2023-03-06T10:26:39.427Z,74.00
2023-03-06T10:29:36.246Z,74.16
2023-03-06T10:32:25.667Z,74.38
2023-03-06T10:35:01.468Z,74.38
2023-03-06T10:37:33.321Z,74.49
2023-03-06T10:40:15.101Z,74.39
2023-03-06T10:42:46.996Z,74.23
2023-03-06T10:45:19.682Z,74.58
2023-03-06T10:47:51.381Z,75.12
2023-03-06T10:50:32.031Z,75.34
2023-03-06T10:53:06.302Z,75.84
2023-03-06T10:55:39.326Z,75.38
2023-03-06T10:58:27.062Z,75.56
2023-03-06T11:01:20.432Z,75.44
2023-03-06T11:03:53.322Z,75.60
2023-03-06T11:06:37.181Z,75.27
2023-03-06T11:09:25.805Z,75.62
2023-03-06T11:12:24.054Z,76.03
2023-03-06T11:15:18.837Z,76.13
2023-03-06T11:18:01.141Z,75.84
2023-03-06T11:20:50.536Z,75.62
2023-03-06T11:23:30.891Z,75.52
2023-03-06T11:26:09.482Z,75.42
2023-03-06T11:28:47.829Z,75.36
2023-03-06T11:31:22.794Z,75.59
2023-03-06T11:34:00.616Z,75.54
2023-03-06T11:36:39.292Z,75.57
2023-03-06T11:39:26.295Z,75.97
2023-03-06T11:42:06.979Z,75.86
2023-03-06T11:44:51.202Z,75.77
2023-03-06T11:47:27.616Z,76.06
2023-03-06T11:50:15.256Z,76.00
2023-03-06T11:52:53.038Z,76.12
2023-03-06T11:55:47.807Z,75.69
2023-03-06T11:58:42.543Z,76.29
2023-03-06T12:01:22.479Z,76.15
2023-03-06T12:04:20.252Z,75.88
2023-03-06T12:07:00.411Z,76.00
2023-03-06T12:09:45.032Z,75.88
2023-03-06T12:12:43.161Z,76.47
2023-03-06T12:15:32.238Z,76.65
2023-03-06T12:18:23.532Z,76.55
2023-03-06T12:21:06.120Z,76.62
2023-03-06T12:24:00.814Z,76.46
2023-03-06T12:26:48.657Z,76.37
2023-03-06T12:29:37.690Z,76.05
2023-03-06T12:32:18.713Z,75.73
2023-03-06T12:35:07.368Z,76.00
2023-03-06T12:37:53.908Z,76.38
2023-03-06T12:40:42.290Z,76.59
2023-03-06T12:43:36.137Z,76.52
2023-03-06T12:46:15.631Z,76.33
2023-03-06T12:48:50.300Z,76.22
2023-03-06T12:51:24.233Z,76.61
2023-03-06T12:53:59.087Z,76.58
2023-03-06T12:56:30.425Z,76.62
2023-03-06T12:59:03.623Z,76.91
2023-03-06T13:01:55.788Z,76.90
2023-03-06T13:04:57.920Z,76.91
2023-03-06T13:07:45.443Z,76.31
2023-03-06T13:10:27.714Z,76.30
2023-03-06T13:13:03.776Z,76.57
2023-03-06T13:15:48.282Z,76.43
2023-03-06T13:18:58.627Z,76.61
2023-03-06T13:22:03.762Z,77.06
2023-03-06T13:24:37.544Z,76.94
2023-03-06T13:27:12.879Z,76.87
2023-03-06T13:30:26.178Z,76.85
2023-03-06T13:32:58.881Z,77.05
2023-03-06T13:35:56.946Z,76.93
2023-03-06T13:38:37.704Z,77.20
2023-03-06T13:41:55.062Z,77.28
2023-03-06T13:44:53.638Z,76.95
2023-03-06T13:48:10.628Z,77.11
2023-03-06T13:50:39.925Z,76.59
2023-03-06T13:53:59.416Z,76.74
2023-03-06T13:57:03.650Z,76.88
2023-03-06T14:00:14.730Z,76.84
2023-03-06T14:03:05.041Z,76.67
2023-03-06T14:05:46.225Z,76.80
2023-03-06T14:08:20.429Z,77.19
2023-03-06T14:11:01.832Z,77.05
2023-03-06T14:13:47.107Z,77.02
2023-03-06T14:16:26.926Z,77.22
2023-03-06T14:19:00.470Z,77.47
2023-03-06T14:21:39.011Z,77.77
2023-03-06T14:24:20.382Z,78.03
2023-03-06T14:26:53.364Z,77.95
2023-03-06T14:29:27.030Z,78.11
2023-03-06T14:32:00.364Z,78.16
2023-03-06T14:34:41.162Z,78.09
2023-03-06T14:37:25.124Z,78.00
2023-03-06T14:39:56.905Z,78.03
2023-03-06T14:42:30.304Z,77.88
2023-03-06T14:45:16.398Z,77.68
2023-03-06T14:47:53.372Z,78.09
2023-03-06T14:50:29.616Z,78.05
2023-03-06T14:53:07.019Z,77.71
2023-03-06T14:55:40.140Z,77.85
2023-03-06T14:58:17.917Z,77.82
2023-03-06T15:00:54.868Z,77.84
2023-03-06T15:03:29.675Z,77.66
2023-03-06T15:06:01.757Z,78.02
2023-03-06T15:08:37.746Z,78.10
2023-03-06T15:11:10.392Z,78.28
2023-03-06T15:13:42.780Z,78.43
2023-03-06T15:16:30.102Z,78.02
2023-03-06T15:19:04.055Z,78.02
2023-03-06T15:21:38.805Z,78.01
2023-03-06T15:24:30.409Z,77.96
2023-03-06T15:27:04.977Z,77.61
2023-03-06T15:29:40.243Z,77.64
2023-03-06T15:32:31.173Z,77.76
2023-03-06T15:35:32.466Z,78.05
2023-03-06T15:38:05.138Z,78.51
2023-03-06T15:40:36.799Z,78.27
2023-03-06T15:43:12.984Z,78.02
2023-03-06T15:45:44.628Z,78.14
2023-03-06T15:48:20.356Z,78.15
2023-03-06T15:50:52.016Z,78.17
2023-03-06T15:53:24.630Z,78.40
2023-03-06T15:55:56.683Z,78.70
2023-03-06T15:58:33.542Z,79.18
2023-03-06T16:01:05.531Z,79.20
2023-03-06T16:03:38.317Z,79.16
2023-03-06T16:06:12.240Z,79.04
2023-03-06T16:08:44.032Z,79.12
2023-03-06T16:11:32.539Z,78.85
2023-03-06T16:14:07.746Z,79.05
2023-03-06T16:16:40.894Z,78.87
2023-03-06T16:19:25.931Z,78.80
2023-03-06T16:22:00.174Z,78.68
2023-03-06T16:24:33.232Z,78.72
2023-03-06T16:27:07.650Z,78.76
2023-03-06T16:29:39.592Z,78.83
2023-03-06T16:32:13.608Z,79.09
2023-03-06T16:34:46.508Z,79.27
2023-03-06T16:37:21.158Z,79.23
2023-03-06T16:39:53.876Z,79.29
2023-03-06T16:42:26.804Z,79.20
2023-03-06T16:45:01.075Z,79.28
2023-03-06T16:47:37.932Z,79.55
2023-03-06T16:50:22.310Z,79.65
2023-03-06T16:52:57.208Z,79.61
2023-03-06T16:55:31.133Z,79.56
2023-03-06T16:58:04.849Z,79.88
2023-03-06T17:00:39.596Z,79.98
2023-03-06T17:03:17.600Z,79.95
2023-03-06T17:05:50.225Z,79.93
2023-03-06T17:08:22.050Z,80.00
2023-03-06T17:10:53.730Z,80.16
2023-03-06T17:13:27.509Z,80.44
2023-03-06T17:16:02.411Z,80.28
2023-03-06T17:18:32.905Z,80.10
2023-03-06T17:21:04.721Z,79.86
2023-03-06T17:23:37.866Z,79.76
2023-03-06T17:26:13.127Z,80.09
2023-03-06T17:28:46.126Z,80.24
2023-03-06T17:31:19.937Z,80.45
2023-03-06T17:33:54.701Z,80.50
2023-03-06T17:36:28.559Z,80.74
2023-03-06T17:39:02.289Z,80.85
2023-03-06T17:41:35.475Z,80.53
2023-03-06T17:44:11.473Z,80.33
2023-03-06T17:46:43.993Z,80.47
2023-03-06T17:49:20.092Z,80.43
2023-03-06T17:51:54.184Z,80.40
2023-03-06T17:54:30.790Z,80.27
2023-03-06T17:57:06.545Z,80.49
2023-03-06T17:59:40.438Z,80.32
2023-03-06T18:02:16.118Z,80.35
2023-03-06T18:04:52.570Z,80.63
2023-03-06T18:07:27.343Z,80.72
2023-03-06T18:10:19.049Z,80.71
2023-03-06T18:13:02.408Z,80.21
2023-03-06T18:15:40.520Z,80.23
2023-03-06T18:18:18.343Z,80.10
2023-03-06T18:20:51.954Z,79.98
2023-03-06T18:23:27.680Z,80.05
2023-03-06T18:26:18.332Z,80.33
2023-03-06T18:28:55.994Z,80.79
2023-03-06T18:31:34.816Z,80.81
2023-03-06T18:34:12.315Z,80.71
2023-03-06T18:36:52.139Z,80.27
2023-03-06T18:39:26.190Z,80.58
2023-03-06T18:42:01.937Z,80.46
2023-03-06T18:44:40.045Z,80.56
2023-03-06T18:47:21.586Z,80.33
2023-03-06T18:49:56.875Z,80.20
2023-03-06T18:52:32.246Z,80.14
2023-03-06T18:55:06.822Z,79.64
2023-03-06T18:57:47.074Z,79.47
2023-03-06T19:00:34.325Z,80.10
2023-03-06T19:03:07.165Z,80.24
2023-03-06T19:05:54.309Z,80.36
2023-03-06T19:08:31.006Z,80.43
2023-03-06T19:11:07.906Z,80.55
2023-03-06T19:13:42.317Z,80.48
2023-03-06T19:16:24.246Z,80.14
2023-03-06T19:18:59.420Z,80.04
2023-03-06T19:21:39.757Z,80.11
2023-03-06T19:24:15.827Z,80.01
2023-03-06T19:26:50.212Z,79.94
2023-03-06T19:29:26.697Z,80.49
2023-03-06T19:32:02.945Z,80.29
2023-03-06T19:34:36.646Z,80.44
2023-03-06T19:37:12.657Z,80.70
2023-03-06T19:39:53.959Z,80.61
2023-03-06T19:42:27.342Z,80.92
2023-03-06T19:45:02.088Z,80.85
2023-03-06T19:47:36.968Z,80.64
2023-03-06T19:50:09.809Z,80.50
2023-03-06T19:52:46.740Z,80.22
2023-03-06T19:55:26.612Z,80.55
2023-03-06T19:58:00.667Z,80.39
2023-03-06T20:00:53.134Z,80.23
2023-03-06T20:03:27.445Z,80.15
2023-03-06T20:06:02.421Z,80.26
2023-03-06T20:08:37.303Z,80.39
2023-03-06T20:11:20.511Z,80.68
2023-03-06T20:14:01.122Z,80.69
2023-03-06T20:16:36.549Z,81.01
2023-03-06T20:19:13.010Z,80.97
2023-03-06T20:21:48.128Z,81.10
2023-03-06T20:24:23.720Z,80.87
2023-03-06T20:26:58.602Z,81.33
2023-03-06T20:29:34.541Z,81.55
2023-03-06T20:32:10.940Z,81.54
2023-03-06T20:34:45.466Z,81.60
2023-03-06T20:37:21.553Z,81.50
2023-03-06T20:39:56.599Z,81.36
2023-03-06T20:42:30.083Z,81.08
2023-03-06T20:45:09.145Z,80.82
2023-03-06T20:47:48.628Z,81.15
2023-03-06T20:50:22.862Z,81.23
2023-03-06T20:52:59.485Z,81.33
2023-03-06T20:55:39.314Z,81.18
2023-03-06T20:58:11.932Z,81.57
2023-03-06T21:00:47.022Z,81.53
2023-03-06T21:03:21.381Z,81.58
2023-03-06T21:05:55.053Z,81.80
2023-03-06T21:08:32.225Z,80.92
2023-03-06T21:11:05.120Z,81.21
2023-03-06T21:13:37.745Z,81.23
2023-03-06T21:16:11.987Z,81.08
2023-03-06T21:18:48.427Z,80.40
2023-03-06T21:21:22.497Z,80.67
2023-03-06T21:23:55.635Z,80.21
2023-03-06T21:26:29.845Z,80.64
2023-03-06T21:29:05.195Z,81.14
2023-03-06T21:31:37.637Z,81.42
2023-03-06T21:34:11.694Z,81.52
2023-03-06T21:36:44.014Z,81.54
2023-03-06T21:39:16.375Z,81.18
2023-03-06T21:41:48.217Z,81.03
2023-03-06T21:44:20.041Z,81.26
2023-03-06T21:46:51.745Z,81.29
2023-03-06T21:49:26.330Z,81.08
2023-03-06T21:51:57.821Z,81.11
2023-03-06T21:54:30.675Z,81.26
2023-03-06T21:57:02.602Z,81.12
2023-03-06T21:59:35.097Z,81.42
2023-03-06T22:02:07.027Z,81.47
2023-03-06T22:04:39.522Z,81.56
2023-03-06T22:07:11.451Z,81.55
2023-03-06T22:09:43.230Z,80.98
2023-03-06T22:12:15.669Z,81.17
2023-03-06T22:14:48.139Z,81.53
2023-03-06T22:17:19.936Z,81.77
2023-03-06T22:19:53.241Z,82.14
2023-03-06T22:22:24.948Z,82.33
2023-03-06T22:24:56.642Z,81.83
2023-03-06T22:27:30.270Z,81.28
2023-03-06T22:30:01.782Z,80.71
2023-03-06T22:32:33.661Z,81.10
2023-03-06T22:35:05.473Z,81.28
2023-03-06T22:37:36.951Z,81.06
2023-03-06T22:40:10.218Z,81.33
2023-03-06T22:42:42.245Z,81.34
2023-03-06T22:45:16.709Z,81.06
2023-03-06T22:47:48.360Z,80.90
2023-03-06T22:50:21.973Z,81.06
2023-03-06T22:52:53.761Z,80.99
2023-03-06T22:55:25.611Z,81.31
2023-03-06T22:57:57.352Z,81.62
2023-03-06T23:00:29.212Z,81.69
2023-03-06T23:03:01.552Z,81.04
2023-03-06T23:05:33.224Z,81.14
2023-03-06T23:08:05.369Z,81.41
2023-03-06T23:10:40.915Z,81.73
2023-03-06T23:13:12.785Z,82.05
2023-03-06T23:15:44.312Z,81.60
2023-03-06T23:18:15.978Z,81.27
2023-03-06T23:20:48.547Z,81.25
2023-03-06T23:23:20.123Z,81.48
2023-03-06T23:25:52.302Z,81.10
2023-03-06T23:28:24.318Z,81.37
2023-03-06T23:30:56.357Z,81.23
2023-03-06T23:33:28.891Z,81.46
2023-03-06T23:36:06.019Z,81.29
2023-03-06T23:38:37.865Z,81.52
2023-03-06T23:41:11.966Z,81.41
2023-03-06T23:43:43.864Z,81.89
2023-03-06T23:46:16.835Z,81.60
2023-03-06T23:48:49.388Z,81.49
2023-03-06T23:51:23.520Z,80.74
2023-03-06T23:53:59.798Z,80.74
2023-03-06T23:56:33.408Z,81.25
2023-03-06T23:59:05.253Z,81.32
